Observations at @ca for Latest


KACV 161953Z AUTO 32008KT 1/4SM R32/1200V3500FT FG VV002 09/09 A3032 RMK AO2
 SLP273 T00940089=
KACV 162005Z AUTO 31007KT 1/4SM R32/0800V2200FT FG VV002 09/09 A3031 RMK AO2
 T00940089=
KAPC 161954Z 23004KT 10SM CLR 17/11 A3018 RMK AO2 SLP210 T01720106=
KAVX 161951Z AUTO VRB04KT 10SM CLR 26/M07 A3003 RMK AO2 SLP135 T02611072=
KBAB 161958Z AUTO 26004KT 10SM CLR 16/08 A3017 RMK AO2 SLP220 T01610078 $=
KBFL 161954Z 00000KT 3SM HZ CLR 17/07 A3018 RMK AO2 SLP219 T01670072=
KBIH 161956Z AUTO VRB03KT 10SM CLR 21/M03 A3024 RMK AO2 SLP218 T02061033=
KBLH 161952Z AUTO 33016KT 10SM CLR 27/M09 A3003 RMK AO2 WSHFT 1935 SLP163
 T02671089=
KBLU 161952Z AUTO 00000KT 10SM CLR 16/M01 A3030 RMK AO2 SLP202 T01611011=
KBUR 161953Z 10005KT 10SM CLR 29/M08 A2997 RMK AO2 SLP136 T02891078 $=
KBYS 161958Z AUTO 17011KT 10SM CLR 20/M08 A3017 RMK AO2 SLP204 T01981082 $=
KCCR 161953Z 00000KT 10SM CLR 21/07 A3017 RMK AO2 SLP204 T02060072=
KCEC 161956Z AUTO VRB04KT 1/4SM FG VV002 10/09 A3034 RMK AO2 SLP276 T01000094=
KCEC 162017Z AUTO 35005KT 1 1/2SM BR OVC002 11/10 A3034 RMK AO2 T01060100=
KCEC 162029Z AUTO 01006KT 2 1/2SM BR OVC002 11/11 A3033 RMK AO2 T01060106=
KCEC 162036Z AUTO 03006KT 4SM BR OVC002 11/11 A3033 RMK AO2 T01110106=
KCIC 161953Z 35004KT 80SM BKN200 18/07 A3018=
KCMA 161955Z 08019KT 10SM CLR 33/M04 A2995 RMK AO2 SLP149 T03281044=
KCNO 161953Z 04009G18KT 360V080 10SM SCT250 32/M03 A2998 RMK AO2 SLP146
 T03171028=
KCQT 161952Z AUTO 00000KT 10SM CLR 28/M04 A2995 RMK AO2 SLP139 T02781044=
KCRQ 161953Z 24007KT 10SM CLR 24/M07 A2996 RMK AO2 SLP143 T02391067=
KDAG 161950Z AUTO 00000KT 10SM CLR 22/M06 A3016 RMK AO2 SLP199 T02221061=
KEDW 161958Z 00000KT 90SM BKN250 17/M05 A3015 RMK AO2A SLP207 T01711048=
KEMT 162045Z 33003KT 10SM CLR 29/M06 A2994=
KFAT 161953Z VRB04KT 2SM HZ CLR 14/09 A3020 RMK AO2 SLP225 T01390089 $=
KFOT 161955Z AUTO 30009KT 9SM CLR 13/12 A3029 RMK AO1=
KFOT 162015Z AUTO 29014KT 1/4SM OVC002 10/10 A3030 RMK AO1=
KFOT 162030Z AUTO 31013KT M1/4SM OVC002 09/09 A3030 RMK AO1=
KFUL 161953Z VRB03KT 10SM CLR 28/M03 A2994 RMK AO2 SLP139 T02831033=
KHHR 161953Z 00000KT 10SM CLR 26/M02 A2996 RMK AO2 SLP144 T02611017 $=
KHJO 161953Z AUTO 00000KT 4SM HZ CLR 15/10 A3021 RMK AO2 SLP230 T01500100=
KHWD 161954Z 26003KT 10SM CLR 17/09 A3018 RMK AO2 SLP228 T01720094=
KIPL 161953Z AUTO 17003KT 10SM CLR 26/M04 A3000 RMK AO2 SLP158 T02561039 $=
KIZA 161955Z AUTO 00000KT 10SM CLR 29/02 A3000 RMK AO2=
KIZA 162015Z AUTO 36008KT 10SM CLR 30/00 A3000 RMK AO2=
KIZA 162035Z AUTO 01010KT 10SM CLR 28/00 A2999 RMK AO2=
KLAX 161953Z 00000KT 10SM SCT250 26/02 A2996 RMK AO2 SLP144 T02560017=
KLGB 161953Z 31003KT 10SM CLR 27/M01 A2996 RMK AO2 SLP143 T02671006 $=
KLPC 161956Z AUTO 35014G19KT 10SM 27/02 A3003 RMK AO2 SLP169 T02720022 $=
KLVK 161953Z 26003KT 10SM CLR 20/06 A3018 RMK AO2 SLP216 T02000056=
KMAE 161953Z AUTO 13004KT 1 1/4SM HZ OVC003 23/10 A3021 RMK AO2 SLP226
 T02280100 $=
KMAE 162023Z AUTO 00000KT 2SM HZ SCT004 19/10 A3019 RMK AO2 T01890100 $=
KMCC 161955Z AUTO 00000KT 10SM CLR 14/09 A3019 RMK AO2=
KMCC 162015Z AUTO 00000KT 10SM CLR 15/10 A3017 RMK AO2=
KMCC 162035Z AUTO 00000KT 10SM CLR 16/09 A3016 RMK AO2=
KMCE 161953Z AUTO 00000KT 2SM HZ FEW004 13/10 A3019 RMK AO2 SLP224 T01330100 $=
KMCE 162045Z AUTO 00000KT 3SM HZ CLR 15/10 A3016 RMK AO2 T01500100 $=
KMER 161945Z 00000KT 2SM FG SKC 15/15 A3021=
KMHR 162048Z 00000KT 10SM SCT250 15/10 A3014=
KMHS 161956Z AUTO 31006KT 10SM CLR 06/03 A3033 RMK AO2 SLP300 T00610028=
KMHV 161940Z AUTO 07009KT 10SM CLR 20/M06 A3019 RMK A01=
KMHV 162000Z AUTO 10SM CLR 21/M07 A3018 RMK A01=
KMHV 162020Z AUTO 06010KT 10SM 21/M07 A3018 RMK A01=
KMMH 161954Z AUTO 13003KT 10SM CLR 14/M04 A3035 RMK AO2=
KMMH 162015Z AUTO 11006KT 10SM CLR 14/M04 A3034 RMK AO2=
KMMH 162034Z AUTO 17003KT 10SM CLR 14/M04 A3033 RMK AO2=
KMOD 161953Z 10005KT 4SM HZ CLR 12/08 A3019 RMK AO2 SLP224 T01170083 $=
KMRY 161954Z 30004KT 10SM CLR 15/08 A3017 RMK AO2 SLP229 T01500083=
KMYF 161953Z 19008KT 10SM CLR 26/M03 A2997 RMK AO2 SLP146 T02561033=
KMYV 161953Z AUTO 00000KT 10SM CLR 18/06 A3018 RMK AO2 SLP223 T01780056=
KNFG 161955Z AUTO 21009KT 10SM CLR 27/M15 A2995 RMK AO2 SLP142 T02721150=
KNID 161956Z AUTO 00000KT 10SM CLR 20/M06 A3016 RMK AO2 SLP211 T02001061 $=
KNJK 161956Z 31004KT 10SM FEW250 28/M13 A3001 RMK SLP179 T02781128=
KNKX 161955Z 20008KT 10SM CLR 27/M06 A2996 RMK AO2 SLP141 T02721061 $=
KNLC 161956Z 33004KT 9SM FEW250 18/07 A3019 RMK AO2 SLP225 RH/49 T01780067=
KNRS 161956Z AUTO 10SM CLR A2997 RMK AO2 SLP150 $=
KNSI 161953Z AUTO 33010KT 10SM CLR 27/00 A2997 RMK AO2 SLP141 T02670000=
KNTD 161952Z 06015G23KT 10SM FEW280 32/M02 A2995 RMK AO2 SLP143 T03171022 VISNO
 N $=
KNUC 161956Z 00000KT 10SM BKN250 19/11 A2997 RMK AO2 SLP146 T01890106 $=
KNUQ 161955Z AUTO VRB03KT 10SM CLR 16/10 A3018 RMK AO2=
KNUQ 162015Z AUTO 36004KT 10SM CLR 17/10 A3017 RMK AO2=
KNUQ 162035Z AUTO 36005KT 10SM CLR 18/09 A3016 RMK AO2=
KNXP 161956Z 34013KT 10SM FEW200 23/M08 A3020 RMK AO2 SLP976 T02331078=
KNZY 161952Z 19006KT 10SM FEW010 SCT250 21/08 A2997 RMK AO2 SLP147 T02060078=
KOAK 161953Z 30005KT 9SM FEW180 SCT200 18/11 A3018 RMK AO2 SLP220 T01830106=
KOAR 161955Z AUTO 31006KT 7SM CLR 17/08 A3016 RMK AO2=
KOAR 162015Z AUTO 29007KT 10SM CLR 17/07 A3015 RMK AO2=
KOAR 162035Z AUTO 28009KT 10SM CLR 17/06 A3014 RMK AO2=
KONT 161953Z 30007KT 10SM BKN250 29/M06 A2998 RMK AO2 SLP140 T02891056=
KOVE 161953Z AUTO 00000KT 10SM CLR 17/07 A3018 RMK AO2 SLP222 T01670067=
KOXR 161951Z 27007KT 10SM CLR 24/08 A2995 RMK AO2 SLP141 T02390083=
KPAO 162047Z 36005KT 10SM SKC 17/11 A3015=
KPMD 161953Z AUTO 02008KT 10SM CLR 21/M04 A3017 RMK AO2 SLP207 T02061044=
KPOC 161947Z 25005KT 10SM CLR 27/M03 A3000=
KPRB 161953Z AUTO 33003KT 10SM CLR 21/04 A3014 RMK AO2 SLP203 T02110039=
KPSP 161953Z 00000KT 10SM CLR 31/M06 A3005 RMK AO2 SLP173 T03111061=
KPTV 161956Z AUTO 00000KT 6SM HZ CLR 18/09 A3020 RMK AO2 SLP227 T01780094=
KRAL 161953Z 36014G28KT 10SM CLR 29/M03 A2999 RMK AO2 PK WND 03029/1854 SLP141
 T02941033=
KRBL 161954Z AUTO 34013KT 10SM CLR 22/05 A3018 RMK AO2 SLP219 T02170050=
KRDD 161953Z 35011G15KT 10SM CLR 21/04 A3019 RMK AO2 SLP220 T02110044=
KRHV 161947Z 00000KT 10SM SKC 18/07 A3019=
KRIV 161958Z AUTO 35007KT 10SM CLR 29/M04 A3002 RMK AO2 SLP158 T02891045=
KRNM 161953Z 30011KT 10SM CLR 28/M04 A2999 RMK AO2 SLP145 T02831044=
KSAC 161953Z 10004KT 10SM CLR 17/08 A3018 RMK AO2 SLP219 T01670083=
KSAN 161951Z 21006KT 10SM FEW250 23/01 A2999 RMK AO2 SLP154 T02280006=
KSBA 161953Z 16003KT 10SM CLR 24/07 A2996 RMK AO2 SLP146 T02390067=
KSBD 161953Z 02007KT 10SM SCT200 30/M03 A3001=
KSBP 161956Z 34012KT 10SM CLR 27/02 A3008 RMK AO2 SLP182 T02720022=
KSCK 161955Z 04003KT 10SM CLR 18/08 A3018 RMK AO2 SLP219 T01830078=
KSDB 161953Z AUTO 03013KT 10SM CLR 20/M07 A3022 RMK AO2 SLP187 T02001067 $=
KSDM 161953Z 31004KT 10SM CLR 26/M03 A2997 RMK AO2 SLP145 T02611028=
KSEE 162047Z 00000KT 10SM SKC 28/M07 A2995=
KSFO 161956Z 00000KT 10SM SCT200 16/11 A3018 RMK AO2 SLP218 T01560106=
KSIY 161953Z AUTO 00000KT 9SM OVC003 04/03 A3042 RMK AO2 SLP326 T00390028=
KSJC 161953Z VRB04KT 10SM SCT110 18/07 A3018 RMK AO2 SLP218 T01780072=
KSLI 161958Z 24003KT 10SM BKN250 27/00 A2995 RMK AO2A SLP145 T02661005=
KSMF 161953Z 00000KT 10SM FEW250 17/07 A3018 RMK AO2 SLP218 T01670072=
KSMO 161951Z 20006KT 10SM CLR 26/01 A2996 RMK AO2 SLP145 T02560011 $=
KSMX 161951Z 03016G23KT 10SM CLR 27/02 A3007 RMK AO2 SLP181 T02720022=
KSNA 161953Z 20003KT 10SM SCT230 SCT270 27/M01 A2995 RMK AO2 SLP142 T02671011=
KSNS 161953Z 27007KT 10SM CLR 22/07 A3015 RMK AO2 SLP219 T02220067=
KSQL 162047Z VRB03KT 10SM SCT200 18/11 A3016=
KSTS 161953Z 00000KT 10SM SCT250 19/11 A3018 RMK AO2 SLP214 T01890111=
KSUU 161958Z AUTO 30003KT 10SM CLR 24/08 A3018 RMK AO2 SLP227 T02360084 $=
KSVE 161955Z AUTO 12003KT 10SM CLR 09/02 A3038 RMK AO2=
KSVE 162015Z AUTO 00000KT 10SM CLR 09/02 A3036 RMK AO2=
KSVE 162035Z AUTO 00000KT 10SM CLR 10/02 A3035 RMK AO2=
KTOA 162047Z 00000KT 10SM SKC 29/M02 A2993=
KTRK 162045Z 00000KT 10SM SKC 09/M01 A3032=
KTRM 161952Z AUTO 36004KT 10SM CLR 29/M05 A3000 RMK AO2 SLP160 T02891050=
KTVL 161953Z AUTO 04006KT 10SM CLR 09/00 A3034 RMK AO2 SLP261 T00940000=
KUKI 161956Z AUTO 00000KT 10SM CLR 19/07 A3020 RMK AO2 SLP223 T01890067=
KVBG 161958Z AUTO 04022KT 10SM CLR 27/03 A3004 RMK AO2 PK WND 03028/43 SLP173
 T02670025=
KVCV 162045Z 00000KT 10SM SKC A3018=
KVIS 161956Z AUTO 22004KT 4SM HZ CLR 15/10 A3020 RMK AO2 SLP237 T01500100=
KVNY 161951Z 01018G27KT 10SM FEW100 30/M07 A2997 RMK AO2 PK WND 36027/1942
 SLP137 T03001067=
KWJF 161956Z 06005KT 10SM CLR 19/M05 A3018 RMK AO2 SLP219 T01941050=
KWVI 161953Z AUTO 00000KT 10SM CLR 21/08 A3017 RMK AO2 SLP214 T02110083=